createdAt,value
2023-07-24T00:01:01.692Z,19.39
2023-07-24T00:03:29.824Z,19.36
2023-07-24T00:06:00.989Z,19.41
2023-07-24T00:08:28.919Z,19.45
2023-07-24T00:10:56.841Z,19.49
2023-07-24T00:13:24.900Z,19.48
2023-07-24T00:15:52.934Z,19.52
2023-07-24T00:18:21.073Z,19.55
2023-07-24T00:20:48.861Z,19.49
2023-07-24T00:23:16.833Z,19.52
2023-07-24T00:25:44.889Z,19.49
2023-07-24T00:28:12.825Z,19.46
2023-07-24T00:30:40.595Z,19.42
2023-07-24T00:33:08.332Z,19.36
2023-07-24T00:35:36.377Z,19.35
2023-07-24T00:38:04.143Z,19.26
2023-07-24T00:40:32.694Z,19.21
2023-07-24T00:43:00.891Z,19.18
2023-07-24T00:45:29.900Z,19.21
2023-07-24T00:47:58.102Z,19.16
2023-07-24T00:50:28.591Z,19.14
2023-07-24T00:52:57.364Z,19.12
2023-07-24T00:55:25.498Z,19.12
2023-07-24T00:57:54.248Z,19.10
2023-07-24T01:00:22.765Z,19.15
2023-07-24T01:02:51.050Z,19.16
2023-07-24T01:05:19.422Z,19.16
2023-07-24T01:07:49.075Z,19.23
2023-07-24T01:10:17.104Z,19.23
2023-07-24T01:12:48.868Z,19.22
2023-07-24T01:15:57.486Z,19.23
2023-07-24T01:18:27.545Z,19.29
2023-07-24T01:20:58.791Z,19.23
2023-07-24T01:24:04.512Z,19.26
2023-07-24T01:26:33.684Z,19.25
2023-07-24T01:29:02.210Z,19.29
2023-07-24T01:31:31.378Z,19.28
2023-07-24T01:33:59.675Z,19.32
2023-07-24T01:36:27.855Z,19.36
2023-07-24T01:38:56.653Z,19.45
2023-07-24T01:41:25.988Z,19.42
2023-07-24T01:43:54.021Z,19.42
2023-07-24T01:46:21.950Z,19.46
2023-07-24T01:48:50.059Z,19.46
2023-07-24T01:51:18.015Z,19.53
2023-07-24T01:53:46.252Z,19.55
2023-07-24T01:56:14.283Z,19.60
2023-07-24T01:58:42.211Z,19.55
2023-07-24T02:01:10.360Z,19.53
2023-07-24T02:03:40.561Z,19.46
2023-07-24T02:06:08.376Z,19.46
2023-07-24T02:08:36.144Z,19.36
2023-07-24T02:11:03.937Z,19.31
2023-07-24T02:13:32.144Z,19.25
2023-07-24T02:15:59.995Z,19.15
2023-07-24T02:18:28.114Z,19.08
2023-07-24T02:20:55.976Z,19.11
2023-07-24T02:23:26.378Z,19.08
2023-07-24T02:25:54.485Z,19.05
2023-07-24T02:28:22.414Z,19.08
2023-07-24T02:30:50.655Z,19.04
2023-07-24T02:33:18.652Z,19.07
2023-07-24T02:35:46.411Z,19.08
2023-07-24T02:38:16.008Z,19.10
2023-07-24T02:40:45.141Z,19.12
2023-07-24T02:43:13.003Z,19.02
2023-07-24T02:45:40.753Z,18.94
2023-07-24T02:48:08.569Z,18.92
2023-07-24T02:50:36.579Z,18.83
2023-07-24T02:53:05.416Z,18.83
2023-07-24T02:55:33.572Z,18.78
2023-07-24T02:58:01.879Z,18.75
2023-07-24T03:00:31.137Z,18.75
2023-07-24T03:02:59.386Z,18.70
2023-07-24T03:05:27.409Z,18.70
2023-07-24T03:07:55.171Z,18.71
2023-07-24T03:10:23.792Z,18.70
2023-07-24T03:12:51.751Z,18.67
2023-07-24T03:15:21.028Z,18.65
2023-07-24T03:17:49.045Z,18.67
2023-07-24T03:20:19.543Z,18.64
2023-07-24T03:22:48.066Z,18.70
2023-07-24T03:25:16.010Z,18.67
2023-07-24T03:27:44.306Z,18.73
2023-07-24T03:30:12.714Z,18.74
2023-07-24T03:32:41.272Z,18.78
2023-07-24T03:35:09.401Z,18.81
2023-07-24T03:37:37.758Z,18.81
2023-07-24T03:40:06.734Z,18.80
2023-07-24T03:42:34.602Z,18.85
2023-07-24T03:45:02.954Z,18.91
2023-07-24T03:47:31.379Z,18.95
2023-07-24T03:49:59.489Z,18.94
2023-07-24T03:52:27.593Z,18.97
2023-07-24T03:54:55.472Z,18.97
2023-07-24T03:57:23.314Z,19.00
2023-07-24T03:59:51.243Z,18.94
2023-07-24T04:02:19.832Z,19.01
2023-07-24T04:04:48.651Z,19.01
2023-07-24T04:07:16.471Z,19.00
2023-07-24T04:09:44.321Z,19.02
2023-07-24T04:12:12.221Z,19.04
2023-07-24T04:14:40.018Z,19.07
2023-07-24T04:17:08.000Z,19.07
2023-07-24T04:19:36.448Z,19.08
2023-07-24T04:22:04.422Z,19.02
2023-07-24T04:24:34.811Z,18.94
2023-07-24T04:27:02.930Z,18.92
2023-07-24T04:29:31.157Z,18.92
2023-07-24T04:31:59.109Z,18.94
2023-07-24T04:34:27.035Z,18.95
2023-07-24T04:36:54.958Z,19.05
2023-07-24T04:39:22.821Z,19.08
2023-07-24T04:41:50.582Z,19.07
2023-07-24T04:44:18.495Z,19.01
2023-07-24T04:46:46.289Z,18.97
2023-07-24T04:49:14.126Z,18.90
2023-07-24T04:51:42.023Z,18.85
2023-07-24T04:54:10.355Z,18.78
2023-07-24T04:56:38.539Z,18.77
2023-07-24T04:59:06.334Z,18.74
2023-07-24T05:01:34.409Z,18.73
2023-07-24T05:04:03.127Z,18.80
2023-07-24T05:06:33.575Z,18.81
2023-07-24T05:09:04.138Z,18.94
2023-07-24T05:11:35.051Z,19.04
2023-07-24T05:14:03.093Z,19.04
2023-07-24T05:16:31.958Z,19.04
2023-07-24T05:19:00.388Z,19.10
2023-07-24T05:21:28.332Z,19.12
2023-07-24T05:23:56.096Z,19.15
2023-07-24T05:26:24.256Z,19.16
2023-07-24T05:28:53.866Z,19.15
2023-07-24T05:31:21.833Z,19.23
2023-07-24T05:33:49.714Z,19.26
2023-07-24T05:36:17.475Z,19.15
2023-07-24T05:38:45.282Z,19.19
2023-07-24T05:41:13.649Z,19.19
2023-07-24T05:43:41.544Z,19.16
2023-07-24T05:46:09.783Z,19.25
2023-07-24T05:48:37.724Z,19.26
2023-07-24T05:51:05.558Z,19.31
2023-07-24T05:53:33.513Z,19.45
2023-07-24T05:56:02.608Z,19.45
2023-07-24T05:58:30.885Z,19.50
2023-07-24T06:00:59.033Z,19.58
2023-07-24T06:03:27.418Z,19.53
2023-07-24T06:05:56.817Z,19.59
2023-07-24T06:08:25.285Z,19.63
2023-07-24T06:10:53.439Z,19.70
2023-07-24T06:13:21.762Z,19.74
2023-07-24T06:15:50.845Z,19.84
2023-07-24T06:18:19.243Z,19.86
2023-07-24T06:20:47.211Z,19.84
2023-07-24T06:23:15.241Z,19.96
2023-07-24T06:25:43.618Z,19.98
2023-07-24T06:28:11.485Z,20.07
2023-07-24T06:30:40.569Z,20.06
2023-07-24T06:33:09.202Z,19.87
2023-07-24T06:35:37.887Z,19.94
2023-07-24T06:38:05.868Z,20.07
2023-07-24T06:40:35.371Z,20.01
2023-07-24T06:43:03.671Z,19.97
2023-07-24T06:45:32.535Z,20.00
2023-07-24T06:48:02.613Z,19.93
2023-07-24T06:50:33.395Z,19.90
2023-07-24T06:53:01.939Z,19.90
2023-07-24T06:55:38.024Z,19.91
2023-07-24T06:58:06.119Z,19.91
2023-07-24T07:00:34.757Z,19.93
2023-07-24T07:03:03.016Z,19.91
2023-07-24T07:05:32.921Z,19.94
2023-07-24T07:08:01.174Z,19.98
2023-07-24T07:10:29.339Z,20.01
2023-07-24T07:12:57.536Z,20.13
2023-07-24T07:15:25.518Z,20.16
2023-07-24T07:17:53.550Z,20.27
2023-07-24T07:20:21.663Z,20.31
2023-07-24T07:22:51.063Z,20.29
2023-07-24T07:25:19.171Z,20.38
2023-07-24T07:27:47.023Z,20.45
2023-07-24T07:30:14.900Z,20.48
2023-07-24T07:32:42.817Z,20.51
2023-07-24T07:35:10.750Z,20.56
2023-07-24T07:37:38.635Z,20.66
2023-07-24T07:40:07.524Z,20.68
2023-07-24T07:42:37.262Z,20.68
2023-07-24T07:45:06.911Z,20.66
2023-07-24T07:47:34.971Z,20.65
2023-07-24T07:50:03.288Z,21.30
2023-07-24T07:52:32.615Z,21.75
2023-07-24T07:55:00.957Z,21.98
2023-07-24T07:57:29.091Z,22.01
2023-07-24T07:59:58.033Z,22.12
2023-07-24T08:02:25.943Z,22.10
2023-07-24T08:04:53.900Z,21.85
2023-07-24T08:07:22.181Z,21.88
2023-07-24T08:09:50.091Z,21.85
2023-07-24T08:12:18.376Z,21.91
2023-07-24T08:14:46.178Z,21.88
2023-07-24T08:17:14.413Z,21.93
2023-07-24T08:19:42.287Z,21.93
2023-07-24T08:22:10.268Z,21.99
2023-07-24T08:24:38.130Z,21.93
2023-07-24T08:27:06.320Z,21.82
2023-07-24T08:29:37.075Z,21.65
2023-07-24T08:32:06.091Z,21.69
2023-07-24T08:34:34.063Z,21.82
2023-07-24T08:37:02.306Z,21.93
2023-07-24T08:39:32.172Z,21.78
2023-07-24T08:42:03.331Z,21.86
2023-07-24T08:44:32.933Z,21.93
2023-07-24T08:47:03.149Z,21.99
2023-07-24T08:49:32.500Z,22.16
2023-07-24T08:52:02.506Z,22.24
2023-07-24T08:54:33.750Z,22.29
2023-07-24T08:57:03.535Z,22.35
2023-07-24T08:59:31.981Z,22.53
2023-07-24T09:01:59.932Z,22.71
2023-07-24T09:04:28.497Z,22.83
2023-07-24T09:06:59.617Z,22.67
2023-07-24T09:09:32.795Z,22.54
2023-07-24T09:12:01.744Z,22.49
2023-07-24T09:14:32.828Z,22.51
2023-07-24T09:17:09.761Z,22.39
2023-07-24T09:19:38.612Z,22.35
2023-07-24T09:22:17.681Z,22.36
2023-07-24T09:24:58.438Z,22.44
2023-07-24T09:27:28.465Z,22.54
2023-07-24T09:29:57.524Z,22.59
2023-07-24T09:32:27.359Z,22.49
2023-07-24T09:34:55.743Z,22.29
2023-07-24T09:37:35.415Z,22.06
2023-07-24T09:40:06.861Z,21.92
2023-07-24T09:42:48.600Z,21.89
2023-07-24T09:45:23.472Z,22.12
2023-07-24T09:47:58.826Z,22.46
2023-07-24T09:50:29.859Z,22.97
2023-07-24T09:53:00.813Z,23.46
2023-07-24T09:55:37.377Z,23.96
2023-07-24T09:58:07.393Z,24.20
2023-07-24T10:00:35.509Z,24.52
2023-07-24T10:03:04.258Z,24.82
2023-07-24T10:05:35.468Z,24.76
2023-07-24T10:08:03.838Z,24.51
2023-07-24T10:10:33.472Z,24.53
2023-07-24T10:13:02.136Z,24.66
2023-07-24T10:15:31.850Z,24.80
2023-07-24T10:18:05.181Z,24.75
2023-07-24T10:20:42.003Z,24.29
2023-07-24T10:23:18.084Z,23.93
2023-07-24T10:25:47.414Z,23.73
2023-07-24T10:28:17.606Z,23.63
2023-07-24T10:30:45.812Z,23.47
2023-07-24T10:33:22.186Z,23.32
2023-07-24T10:36:04.653Z,23.05
2023-07-24T10:38:39.881Z,22.67
2023-07-24T10:41:10.172Z,22.05
2023-07-24T10:43:50.094Z,21.40
2023-07-24T10:46:20.652Z,21.00
2023-07-24T10:48:52.144Z,20.61
2023-07-24T10:51:19.908Z,20.39
2023-07-24T10:53:49.783Z,20.22
2023-07-24T10:56:18.677Z,20.14
2023-07-24T10:58:46.744Z,20.03
2023-07-24T11:01:16.320Z,20.04
2023-07-24T11:03:45.356Z,20.08
2023-07-24T11:06:18.829Z,20.04
2023-07-24T11:08:54.978Z,20.03
2023-07-24T11:11:24.131Z,20.03
2023-07-24T11:13:51.902Z,20.10
2023-07-24T11:16:20.110Z,20.18
2023-07-24T11:18:54.005Z,20.22
2023-07-24T11:21:25.463Z,20.14
2023-07-24T11:23:58.040Z,20.03
2023-07-24T11:26:28.334Z,19.73
2023-07-24T11:28:57.681Z,19.65
2023-07-24T11:31:25.764Z,19.91
2023-07-24T11:33:55.316Z,20.08
2023-07-24T11:36:24.321Z,20.34
2023-07-24T11:38:52.078Z,20.61
2023-07-24T11:41:19.997Z,20.68
2023-07-24T11:43:49.950Z,21.16
2023-07-24T11:46:26.292Z,22.20
2023-07-24T11:48:57.962Z,22.13
2023-07-24T11:51:34.806Z,21.81
2023-07-24T11:54:09.016Z,22.67
2023-07-24T11:56:37.032Z,23.41
2023-07-24T11:59:16.857Z,23.81
2023-07-24T12:01:49.443Z,24.51
2023-07-24T12:04:18.655Z,25.03
2023-07-24T12:06:48.551Z,25.23
2023-07-24T12:09:16.391Z,24.82
2023-07-24T12:11:50.252Z,24.79
2023-07-24T12:14:18.011Z,24.76
2023-07-24T12:16:45.989Z,24.96
2023-07-24T12:19:13.805Z,24.75
2023-07-24T12:21:41.717Z,25.37
2023-07-24T12:24:09.531Z,25.09
2023-07-24T12:26:37.324Z,24.82
2023-07-24T12:29:05.216Z,24.34
2023-07-24T12:31:33.567Z,23.90
2023-07-24T12:34:04.508Z,23.66
2023-07-24T12:36:35.536Z,23.43
2023-07-24T12:39:03.618Z,23.12
2023-07-24T12:41:33.050Z,22.86
2023-07-24T12:44:01.605Z,22.39
2023-07-24T12:46:29.419Z,22.23
2023-07-24T12:48:57.517Z,22.20
2023-07-24T12:51:25.222Z,22.22
2023-07-24T12:53:58.947Z,22.16
2023-07-24T12:56:41.800Z,22.13
2023-07-24T12:59:09.628Z,22.17
2023-07-24T13:01:37.501Z,22.17
2023-07-24T13:04:05.821Z,22.12
2023-07-24T13:06:34.101Z,22.05
2023-07-24T13:09:02.594Z,21.88
2023-07-24T13:11:31.333Z,21.85
2023-07-24T13:13:59.534Z,21.78
2023-07-24T13:16:28.641Z,21.61
2023-07-24T13:18:56.983Z,21.48
2023-07-24T13:21:24.818Z,21.51
2023-07-24T13:23:52.897Z,21.45
2023-07-24T13:26:21.179Z,21.47
2023-07-24T13:28:49.036Z,21.35
2023-07-24T13:31:21.741Z,21.16
2023-07-24T13:33:49.804Z,20.95
2023-07-24T13:36:17.724Z,20.93
2023-07-24T13:38:45.724Z,20.93
2023-07-24T13:41:13.494Z,20.96
2023-07-24T13:43:41.232Z,20.79
2023-07-24T13:46:09.568Z,20.92
2023-07-24T13:48:37.632Z,20.97
2023-07-24T13:51:06.896Z,21.11
2023-07-24T13:53:34.760Z,21.08
2023-07-24T13:56:03.606Z,21.43
2023-07-24T13:58:32.100Z,21.24
2023-07-24T14:01:00.031Z,21.30
2023-07-24T14:03:30.855Z,22.19
2023-07-24T14:05:59.034Z,23.20
2023-07-24T14:08:27.285Z,24.00
2023-07-24T14:10:55.320Z,24.45
2023-07-24T14:13:23.265Z,24.31
2023-07-24T14:15:51.075Z,24.20
2023-07-24T14:18:19.064Z,24.56
2023-07-24T14:20:48.429Z,23.93
2023-07-24T14:23:16.429Z,23.55
2023-07-24T14:25:44.246Z,23.39
2023-07-24T14:28:12.590Z,23.80
2023-07-24T14:30:40.659Z,24.48
2023-07-24T14:33:08.485Z,24.71
2023-07-24T14:35:36.432Z,24.48
2023-07-24T14:38:04.340Z,24.73
2023-07-24T14:40:32.745Z,24.38
2023-07-24T14:43:00.563Z,24.34
2023-07-24T14:45:28.805Z,24.72
2023-07-24T14:47:56.734Z,25.21
2023-07-24T14:50:24.620Z,25.58
2023-07-24T14:52:52.529Z,25.79
2023-07-24T14:55:20.655Z,25.78
2023-07-24T14:57:49.312Z,25.71
2023-07-24T15:00:17.963Z,25.78
2023-07-24T15:02:48.392Z,25.75
2023-07-24T15:05:16.526Z,25.23
2023-07-24T15:07:44.368Z,25.30
2023-07-24T15:10:12.720Z,25.71
2023-07-24T15:12:40.529Z,25.59
2023-07-24T15:15:09.527Z,25.71
2023-07-24T15:17:37.584Z,25.95
2023-07-24T15:20:06.737Z,25.13
2023-07-24T15:22:34.951Z,24.51
2023-07-24T15:25:03.988Z,24.05
2023-07-24T15:27:34.563Z,23.46
2023-07-24T15:30:02.782Z,23.01
2023-07-24T15:32:30.836Z,22.65
2023-07-24T15:34:59.033Z,22.36
2023-07-24T15:37:27.461Z,22.19
2023-07-24T15:39:55.424Z,21.96
2023-07-24T15:42:23.759Z,21.58
2023-07-24T15:44:52.629Z,21.31
2023-07-24T15:47:20.696Z,21.20
2023-07-24T15:49:48.593Z,21.24
2023-07-24T15:52:16.934Z,21.38
2023-07-24T15:54:44.836Z,21.57
2023-07-24T15:57:12.646Z,21.57
2023-07-24T15:59:40.763Z,21.72
2023-07-24T16:02:08.963Z,21.82
2023-07-24T16:04:37.112Z,21.68
2023-07-24T16:07:05.147Z,21.51
2023-07-24T16:09:33.369Z,21.51
2023-07-24T16:12:01.111Z,21.54
2023-07-24T16:14:29.112Z,21.77
2023-07-24T16:16:56.981Z,21.96
2023-07-24T16:19:24.753Z,22.06
2023-07-24T16:21:53.407Z,21.99
2023-07-24T16:24:21.835Z,21.95
2023-07-24T16:26:50.534Z,21.95
2023-07-24T16:29:18.566Z,21.99
2023-07-24T16:31:46.327Z,21.74
2023-07-24T16:34:15.409Z,21.55
2023-07-24T16:36:43.462Z,21.64
2023-07-24T16:39:11.662Z,21.48
2023-07-24T16:41:39.697Z,21.26
2023-07-24T16:44:08.976Z,21.13
2023-07-24T16:46:38.263Z,20.93
2023-07-24T16:49:07.604Z,20.62
2023-07-24T16:51:35.917Z,20.13
2023-07-24T16:54:03.810Z,19.65
2023-07-24T16:56:34.982Z,19.39
2023-07-24T16:59:03.128Z,19.07
2023-07-24T17:01:33.151Z,18.81
2023-07-24T17:04:04.297Z,18.65
2023-07-24T17:06:32.670Z,18.54
2023-07-24T17:09:00.879Z,18.54
2023-07-24T17:11:29.431Z,18.54
2023-07-24T17:13:58.883Z,18.44
2023-07-24T17:16:26.741Z,18.42
2023-07-24T17:18:57.620Z,18.37
2023-07-24T17:21:25.546Z,18.39
2023-07-24T17:23:53.433Z,18.44
2023-07-24T17:26:21.408Z,18.42
2023-07-24T17:28:49.402Z,18.23
2023-07-24T17:31:17.568Z,18.16
2023-07-24T17:33:45.726Z,18.08
2023-07-24T17:36:13.702Z,18.16
2023-07-24T17:38:41.686Z,18.04
2023-07-24T17:41:10.735Z,17.98
2023-07-24T17:43:39.027Z,17.98
2023-07-24T17:46:06.852Z,17.96
2023-07-24T17:48:35.819Z,17.84
2023-07-24T17:51:03.863Z,17.82
2023-07-24T17:53:34.650Z,17.85
2023-07-24T17:56:02.726Z,17.82
2023-07-24T17:58:30.666Z,17.84
2023-07-24T18:00:58.867Z,17.85
2023-07-24T18:03:27.058Z,17.89
2023-07-24T18:05:57.421Z,17.88
2023-07-24T18:08:25.256Z,17.95
2023-07-24T18:10:53.569Z,17.88
2023-07-24T18:13:21.377Z,17.86
2023-07-24T18:15:49.141Z,17.82
2023-07-24T18:18:17.399Z,17.77
2023-07-24T18:20:45.386Z,17.77
2023-07-24T18:23:14.462Z,17.73
2023-07-24T18:25:42.449Z,17.65
2023-07-24T18:28:12.925Z,17.61
2023-07-24T18:30:40.814Z,17.63
2023-07-24T18:33:09.256Z,17.65
2023-07-24T18:35:37.191Z,17.65
2023-07-24T18:38:04.910Z,17.73
2023-07-24T18:40:33.683Z,17.78
2023-07-24T18:43:02.034Z,17.78
2023-07-24T18:45:30.684Z,17.86
2023-07-24T18:48:01.121Z,17.88
2023-07-24T18:50:34.691Z,17.84
2023-07-24T18:53:03.592Z,17.82
2023-07-24T18:55:32.395Z,17.81
2023-07-24T18:58:00.558Z,17.85
2023-07-24T19:00:28.817Z,17.84
2023-07-24T19:02:56.676Z,17.92
2023-07-24T19:05:25.244Z,17.92
2023-07-24T19:07:54.133Z,17.89
2023-07-24T19:10:21.920Z,17.89
2023-07-24T19:12:51.379Z,17.85
2023-07-24T19:15:19.503Z,17.82
2023-07-24T19:17:47.619Z,17.84
2023-07-24T19:20:16.113Z,17.82
2023-07-24T19:22:44.121Z,17.77
2023-07-24T19:25:14.731Z,17.78
2023-07-24T19:27:42.569Z,17.79
2023-07-24T19:30:13.335Z,17.79
2023-07-24T19:32:43.525Z,17.75
2023-07-24T19:35:13.229Z,17.67
2023-07-24T19:37:42.675Z,17.70
2023-07-24T19:40:11.058Z,17.58
2023-07-24T19:42:39.160Z,17.54
2023-07-24T19:45:08.262Z,17.50
2023-07-24T19:47:36.189Z,17.51
2023-07-24T19:50:07.077Z,17.46
2023-07-24T19:52:35.414Z,17.41
2023-07-24T19:55:03.542Z,17.43
2023-07-24T19:57:33.547Z,17.44
2023-07-24T20:00:04.103Z,17.47
2023-07-24T20:02:33.086Z,17.51
2023-07-24T20:05:01.048Z,17.57
2023-07-24T20:07:28.869Z,17.64
2023-07-24T20:09:57.056Z,17.71
2023-07-24T20:12:25.207Z,17.71
2023-07-24T20:14:53.332Z,17.77
2023-07-24T20:17:21.318Z,17.75
2023-07-24T20:19:49.609Z,17.75
2023-07-24T20:22:17.976Z,17.77
2023-07-24T20:24:46.553Z,17.79
2023-07-24T20:27:14.458Z,17.78
2023-07-24T20:29:42.468Z,17.74
2023-07-24T20:32:10.523Z,17.67
2023-07-24T20:34:38.638Z,17.64
2023-07-24T20:37:06.547Z,17.68
2023-07-24T20:39:34.532Z,17.68
2023-07-24T20:42:02.592Z,17.68
2023-07-24T20:44:37.709Z,17.65
2023-07-24T20:47:06.056Z,17.57
2023-07-24T20:49:35.551Z,17.47
2023-07-24T20:52:03.940Z,17.46
2023-07-24T20:54:32.961Z,17.44
2023-07-24T20:57:00.999Z,17.51
2023-07-24T20:59:31.688Z,17.53
2023-07-24T21:01:59.561Z,17.58
2023-07-24T21:04:27.602Z,17.63
2023-07-24T21:06:55.833Z,17.65
2023-07-24T21:09:23.594Z,17.68
2023-07-24T21:11:51.589Z,17.67
2023-07-24T21:14:19.409Z,17.68
2023-07-24T21:16:47.485Z,17.71
2023-07-24T21:19:15.327Z,17.71
2023-07-24T21:21:45.232Z,17.63
2023-07-24T21:24:14.541Z,17.63
2023-07-24T21:26:42.548Z,17.61
2023-07-24T21:29:10.621Z,17.51
2023-07-24T21:31:39.178Z,17.40
2023-07-24T21:34:06.999Z,17.34
2023-07-24T21:36:34.783Z,17.26
2023-07-24T21:39:03.824Z,17.15
2023-07-24T21:41:32.192Z,17.06
2023-07-24T21:44:00.346Z,17.00
2023-07-24T21:46:29.400Z,17.00
2023-07-24T21:48:57.511Z,16.98
2023-07-24T21:51:26.091Z,16.98
2023-07-24T21:53:54.458Z,16.93
2023-07-24T21:56:22.876Z,16.90
2023-07-24T21:58:51.601Z,16.85
2023-07-24T22:01:21.694Z,16.80
2023-07-24T22:03:50.088Z,16.85
2023-07-24T22:06:17.999Z,16.89
2023-07-24T22:08:45.822Z,16.83
2023-07-24T22:11:15.398Z,16.78
2023-07-24T22:13:44.714Z,16.71
2023-07-24T22:16:13.490Z,16.64
2023-07-24T22:18:41.487Z,16.55
2023-07-24T22:21:09.418Z,16.48
2023-07-24T22:23:37.396Z,16.42
2023-07-24T22:26:05.439Z,16.35
2023-07-24T22:28:36.363Z,16.31
2023-07-24T22:31:11.784Z,16.25
2023-07-24T22:33:40.091Z,16.21
2023-07-24T22:36:09.249Z,16.18
2023-07-24T22:38:37.437Z,16.23
2023-07-24T22:41:12.759Z,16.27
2023-07-24T22:43:41.184Z,16.27
2023-07-24T22:46:09.604Z,16.24
2023-07-24T22:48:37.548Z,16.27
2023-07-24T22:51:05.404Z,16.28
2023-07-24T22:53:33.513Z,16.35
2023-07-24T22:56:01.503Z,16.42
2023-07-24T22:58:29.373Z,16.48
2023-07-24T23:00:57.187Z,16.50
2023-07-24T23:03:25.293Z,16.44
2023-07-24T23:05:53.576Z,16.35
2023-07-24T23:08:22.150Z,16.30
2023-07-24T23:10:51.200Z,16.18
2023-07-24T23:13:19.244Z,16.16
2023-07-24T23:15:47.023Z,16.06
2023-07-24T23:18:17.244Z,16.02
2023-07-24T23:20:45.075Z,15.93
2023-07-24T23:23:13.050Z,15.89
2023-07-24T23:25:40.890Z,15.82
2023-07-24T23:28:09.374Z,15.74
2023-07-24T23:30:41.626Z,15.67
2023-07-24T23:33:10.254Z,15.62
2023-07-24T23:35:38.625Z,15.59
2023-07-24T23:38:06.328Z,15.52
2023-07-24T23:40:34.245Z,15.46
2023-07-24T23:43:02.228Z,15.41
2023-07-24T23:45:34.152Z,15.38
2023-07-24T23:48:02.540Z,15.31
2023-07-24T23:50:31.068Z,15.30
2023-07-24T23:52:59.923Z,15.30
2023-07-24T23:55:34.304Z,15.28
2023-07-24T23:58:02.304Z,15.28
